Time;durP1;ratioP1;P1;durP2;ratioP2;P2;SDS_P1;SDS_P2;PMS_P1;PMS_P2;Temp;Humidity;BMP_temperature;BMP_pressure;BME280_temperature;BME280_humidity;BME280_pressure;Samples;Min_cycle;Max_cycle;Signal;HPM_P1;HPM_P2
2021/08/28 00:01:37;;;;;;;1999.90;999.90;;;;;;;11.10;55.72;101061.47;5030938;28;96880;-78
2021/08/28 00:04:07;;;;;;;1999.90;999.90;;;;;;;11.08;55.93;101057.88;4994001;28;96821;-80
2021/08/28 00:06:35;;;;;;;1999.90;999.90;;;;;;;11.06;55.72;101059.59;5009989;28;99937;-77
2021/08/28 00:09:03;;;;;;;1999.90;999.90;;;;;;;11.03;55.94;101060.41;5009264;28;97387;-77
2021/08/28 00:11:31;;;;;;;1999.90;999.90;;;;;;;11.03;55.74;101055.09;4993057;28;96819;-77
2021/08/28 00:14:00;;;;;;;1999.90;999.90;;;;;;;10.98;55.95;101056.75;5026575;28;98897;-77
2021/08/28 00:16:28;;;;;;;1999.90;999.90;;;;;;;10.97;55.87;101052.28;4991806;28;99394;-77
2021/08/28 00:18:56;;;;;;;1999.90;999.90;;;;;;;10.93;56.07;101055.75;5008996;28;97877;-77
2021/08/28 00:21:26;;;;;;;1999.90;999.90;;;;;;;10.92;56.24;101050.38;5025720;28;96937;-77
2021/08/28 00:23:54;;;;;;;1999.90;999.90;;;;;;;10.91;56.11;101053.91;5009999;28;100712;-77
2021/08/28 00:26:22;;;;;;;1999.90;999.90;;;;;;;10.88;56.18;101056.50;4991072;28;99283;-77
2021/08/28 00:28:50;;;;;;;1999.90;999.90;;;;;;;10.87;56.36;101049.34;5009127;28;98535;-77
2021/08/28 00:31:18;;;;;;;1999.90;999.90;;;;;;;10.86;56.29;101047.56;5006909;28;97013;-77
2021/08/28 00:33:47;;;;;;;1999.90;999.90;;;;;;;10.83;56.44;101047.50;4991144;28;99185;-77
2021/08/28 00:36:15;;;;;;;1999.90;999.90;;;;;;;10.81;56.18;101049.22;5006432;28;99306;-77
2021/08/28 00:38:47;;;;;;;1999.90;999.90;;;;;;;10.80;56.36;101055.41;5009662;28;96927;-79
2021/08/28 00:41:15;;;;;;;1999.90;999.90;;;;;;;10.78;56.07;101057.13;5007062;28;97772;-77
2021/08/28 00:43:43;;;;;;;1999.90;999.90;;;;;;;10.77;56.29;101055.34;4993344;28;99566;-76
2021/08/28 00:46:11;;;;;;;1999.90;999.90;;;;;;;10.77;56.19;101065.97;4994217;28;99306;-76
2021/08/28 00:48:39;;;;;;;1999.90;999.90;;;;;;;10.76;56.52;101066.81;4994193;28;97118;-76
2021/08/28 00:51:09;;;;;;;1999.90;999.90;;;;;;;10.76;56.30;101061.50;5008679;28;96927;-77
2021/08/28 00:53:37;;;;;;;1999.90;999.90;;;;;;;10.74;56.13;101061.47;4992195;28;99341;-77
2021/08/28 00:56:06;;;;;;;1999.90;999.90;;;;;;;10.73;56.28;101062.34;4990393;28;99060;-77
2021/08/28 00:58:34;;;;;;;1999.90;999.90;;;;;;;10.72;56.11;101063.19;5007812;28;97008;-77
2021/08/28 01:01:04;;;;;;;1999.90;999.90;;;;;;;10.64;56.61;101063.88;4991393;28;97031;-78
2021/08/28 01:03:35;;;;;;;1999.90;999.90;;;;;;;10.73;56.32;101061.44;5007220;28;97952;-77
2021/08/28 01:06:08;;;;;;;1999.90;999.90;;;;;;;10.56;56.65;101065.41;5007620;28;101053;-78
2021/08/28 01:09:04;;;;;;;1999.90;999.90;;;;;;;10.54;56.65;101061.84;5014750;28;97233;-78
2021/08/28 01:11:58;;;;;;;1999.90;999.90;;;;;;;10.49;56.74;101066.13;4991839;28;96866;-76
2021/08/28 01:14:29;;;;;;;1999.90;999.90;;;;;;;10.47;56.60;101070.50;4989571;28;99811;-77
2021/08/28 01:17:01;;;;;;;1999.90;999.90;;;;;;;10.45;56.89;101070.47;4990917;28;100444;-77
2021/08/28 01:19:39;;;;;;;1999.90;999.90;;;;;;;10.42;56.97;101066.84;5007803;28;97125;-77
2021/08/28 01:22:14;;;;;;;1999.90;999.90;;;;;;;10.42;56.77;101073.06;5007853;28;97591;-78
2021/08/28 01:25:03;;;;;;;1999.90;999.90;;;;;;;10.40;56.77;101074.75;5026074;28;98134;-77
2021/08/28 01:27:53;;;;;;;1999.90;999.90;;;;;;;10.38;56.77;101080.88;5008382;28;99518;-77
2021/08/28 01:30:23;;;;;;;1999.90;999.90;;;;;;;10.36;57.00;101077.28;4990365;28;96788;-77
2021/08/28 01:32:52;;;;;;;1999.90;999.90;;;;;;;10.36;57.04;101074.59;4989718;28;96867;-77
2021/08/28 01:35:22;;;;;;;1999.90;999.90;;;;;;;10.34;56.82;101073.69;4991589;28;101079;-77
2021/08/28 01:37:52;;;;;;;1999.90;999.90;;;;;;;10.33;56.90;101071.88;5024779;28;99967;-78
2021/08/28 01:40:42;;;;;;;1999.90;999.90;;;;;;;10.31;57.06;101071.84;5005503;28;97335;-78
2021/08/28 01:43:11;;;;;;;1999.90;999.90;;;;;;;10.33;57.08;101075.44;5007064;28;96958;-77
2021/08/28 01:45:42;;;;;;;1999.90;999.90;;;;;;;10.33;56.72;101079.84;5006074;28;101451;-77
2021/08/28 01:48:13;;;;;;;1999.90;999.90;;;;;;;10.33;57.05;101077.19;4980746;28;100485;-77
2021/08/28 01:50:44;;;;;;;1999.90;999.90;;;;;;;10.31;56.90;101073.59;4990946;28;96912;-77
2021/08/28 01:53:19;;;;;;;1999.90;999.90;;;;;;;10.31;56.87;101079.81;5025978;27;97431;-77
2021/08/28 01:55:47;;;;;;;1999.90;999.90;;;;;;;10.33;56.95;101074.53;4991285;28;99251;-77
2021/08/28 01:58:15;;;;;;;1999.90;999.90;;;;;;;10.28;57.04;101077.09;4990223;28;99821;-77
2021/08/28 02:01:04;;;;;;;1999.90;999.90;;;;;;;10.26;57.05;101085.88;5008512;28;96786;-78
2021/08/28 02:03:42;;;;;;;1999.90;999.90;;;;;;;10.23;57.24;101082.28;4994110;28;97017;-77
2021/08/28 02:06:15;;;;;;;1999.90;999.90;;;;;;;10.19;57.02;101088.34;4990481;28;100891;-78
2021/08/28 02:08:50;;;;;;;1999.90;999.90;;;;;;;10.19;57.07;101083.03;5009102;28;98540;-77
2021/08/28 02:11:20;;;;;;;1999.90;999.90;;;;;;;10.20;57.14;101082.19;4991285;28;97248;-78
2021/08/28 02:13:51;;;;;;;1999.90;999.90;;;;;;;10.17;57.20;101092.72;4991272;28;96890;-78
2021/08/28 02:16:23;;;;;;;1999.90;999.90;;;;;;;10.17;57.16;101092.72;5007838;28;99784;-78
2021/08/28 02:18:56;;;;;;;1999.90;999.90;;;;;;;10.18;57.17;101088.31;5006626;28;98790;-78
2021/08/28 02:21:48;;;;;;;1999.90;999.90;;;;;;;10.17;57.13;101091.84;5008337;28;96803;-77
2021/08/28 02:24:23;;;;;;;1999.90;999.90;;;;;;;10.13;57.33;101090.88;4991065;28;96862;-78
2021/08/28 02:27:01;;;;;;;1999.90;999.90;;;;;;;10.12;57.29;101089.06;4990350;28;99787;-78
2021/08/28 02:29:33;;;;;;;1999.90;999.90;;;;;;;10.14;57.31;101086.44;4990374;28;100714;-78
2021/08/28 02:32:03;;;;;;;1999.90;999.90;;;;;;;10.14;57.32;101092.66;5007753;28;96906;-78
2021/08/28 02:34:39;;;;;;;1999.90;999.90;;;;;;;10.10;57.37;101090.75;5008765;28;96885;-78
2021/08/28 02:37:10;;;;;;;1999.90;999.90;;;;;;;10.09;57.42;101081.00;5007363;28;99233;-78
2021/08/28 02:39:38;;;;;;;1999.90;999.90;;;;;;;10.09;57.55;101086.31;5006580;28;100979;-77
2021/08/28 02:42:07;;;;;;;1999.90;999.90;;;;;;;10.07;57.30;101093.34;5006756;28;96936;-78
2021/08/28 02:44:39;;;;;;;1999.90;999.90;;;;;;;10.06;57.47;101093.31;5006375;28;97581;-78
2021/08/28 02:47:10;;;;;;;1999.90;999.90;;;;;;;10.05;57.44;101087.09;5006004;28;99326;-78
2021/08/28 02:49:39;;;;;;;1999.90;999.90;;;;;;;10.05;57.53;101092.41;5005340;28;99318;-78
2021/08/28 02:52:18;;;;;;;1999.90;999.90;;;;;;;10.05;57.67;101092.41;5005628;28;96787;-77
2021/08/28 02:54:47;;;;;;;1999.90;999.90;;;;;;;10.04;57.51;101095.03;5023861;28;96867;-76
2021/08/28 02:57:15;;;;;;;1999.90;999.90;;;;;;;10.01;57.39;101090.50;5005536;28;99805;-77
2021/08/28 02:59:43;;;;;;;1999.90;999.90;;;;;;;10.01;57.54;101092.28;4988334;28;101166;-76
2021/08/28 03:02:13;;;;;;;1999.90;999.90;;;;;;;10.00;57.49;101096.69;5005451;28;97455;-76
2021/08/28 03:04:42;;;;;;;1999.90;999.90;;;;;;;10.00;57.59;101091.38;4990606;28;97046;-77
2021/08/28 03:07:11;;;;;;;1999.90;999.90;;;;;;;9.99;57.51;101094.88;5005910;28;100461;-77
2021/08/28 03:09:40;;;;;;;1999.90;999.90;;;;;;;9.98;57.43;101090.44;5006089;28;98432;-77
2021/08/28 03:12:09;;;;;;;1999.90;999.90;;;;;;;9.97;57.69;101099.25;5005252;28;96817;-77
2021/08/28 03:14:37;;;;;;;1999.90;999.90;;;;;;;9.97;57.78;101093.94;5005805;28;96970;-77
2021/08/28 03:17:05;;;;;;;1999.90;999.90;;;;;;;9.97;57.52;101095.72;5007749;28;99286;-77
2021/08/28 03:19:43;;;;;;;1999.90;999.90;;;;;;;9.96;57.69;101092.16;4992455;28;98458;-77
2021/08/28 03:22:16;;;;;;;1999.90;999.90;;;;;;;9.93;57.64;101086.75;5009185;28;97260;-79
2021/08/28 03:24:48;;;;;;;1999.90;999.90;;;;;;;9.92;57.67;101082.28;5024759;27;96811;-79
2021/08/28 03:27:24;;;;;;;1999.90;999.90;;;;;;;9.91;57.66;101079.56;5001502;28;100595;-79
2021/08/28 03:29:53;;;;;;;1999.90;999.90;;;;;;;9.90;57.67;101085.75;5008543;28;97100;-76
2021/08/28 03:32:21;;;;;;;1999.90;999.90;;;;;;;9.91;57.75;101082.25;5008111;28;96978;-77
2021/08/28 03:34:52;;;;;;;1999.90;999.90;;;;;;;9.89;57.67;101083.94;5009128;28;96969;-79
2021/08/28 03:37:22;;;;;;;1999.90;999.90;;;;;;;9.87;57.91;101075.94;5007383;28;97833;-78
2021/08/28 03:39:50;;;;;;;1999.90;999.90;;;;;;;9.88;57.58;101077.72;5008614;28;100738;-79
2021/08/28 03:42:18;;;;;;;1999.90;999.90;;;;;;;9.88;57.67;101071.53;4994943;28;97274;-78
2021/08/28 03:44:46;;;;;;;1999.90;999.90;;;;;;;9.88;57.91;101074.19;4996693;28;96825;-76
2021/08/28 03:47:14;;;;;;;1999.90;999.90;;;;;;;9.88;57.75;101071.53;5011104;28;96813;-79
2021/08/28 03:49:43;;;;;;;1999.90;999.90;;;;;;;9.87;57.66;101069.72;4995253;28;102672;-78
2021/08/28 03:52:14;;;;;;;1999.90;999.90;;;;;;;9.88;57.77;101077.72;4995276;28;96577;-78
2021/08/28 03:54:42;;;;;;;1999.90;999.90;;;;;;;9.87;57.73;101070.63;5030107;28;96784;-78
2021/08/28 03:57:11;;;;;;;1999.90;999.90;;;;;;;9.87;57.76;101075.94;4994430;28;100698;-79
2021/08/28 03:59:40;;;;;;;1999.90;999.90;;;;;;;9.87;57.77;101072.38;4992697;28;98165;-79
2021/08/28 04:02:09;;;;;;;1999.90;999.90;;;;;;;9.85;57.76;101076.75;5012184;28;97575;-79
2021/08/28 04:04:45;;;;;;;1999.90;999.90;;;;;;;9.85;57.56;101072.34;5013471;28;96982;-79
2021/08/28 04:07:15;;;;;;;1999.90;999.90;;;;;;;9.84;57.74;101077.59;5012032;28;100286;-78
2021/08/28 04:09:44;;;;;;;1999.90;999.90;;;;;;;9.84;57.76;101077.59;5012250;28;102394;-78
2021/08/28 04:12:13;;;;;;;1999.90;999.90;;;;;;;9.84;57.75;101086.50;4994884;28;96804;-78
2021/08/28 04:14:50;;;;;;;1999.90;999.90;;;;;;;9.83;57.71;101089.06;4994484;28;96867;-78
2021/08/28 04:17:18;;;;;;;1999.90;999.90;;;;;;;9.82;57.86;101081.97;5007905;28;100073;-80
2021/08/28 04:19:46;;;;;;;1999.90;999.90;;;;;;;9.82;57.79;101085.53;5027515;27;100698;-79
2021/08/28 04:22:26;;;;;;;1999.90;999.90;;;;;;;9.81;57.74;101086.38;5012756;28;96862;-78
2021/08/28 04:25:20;;;;;;;1999.90;999.90;;;;;;;9.81;57.75;101091.69;5004704;28;97070;-78
2021/08/28 04:28:08;;;;;;;1999.90;999.90;;;;;;;9.78;57.96;101096.94;5028854;27;99443;-77
2021/08/28 04:30:38;;;;;;;1999.90;999.90;;;;;;;9.78;57.80;101102.25;5014907;28;99695;-79
2021/08/28 04:33:07;;;;;;;1999.90;999.90;;;;;;;9.75;57.89;101106.56;5016137;28;97223;-78
2021/08/28 04:35:36;;;;;;;1999.90;999.90;;;;;;;9.72;58.01;101104.72;5032792;27;96911;-77
2021/08/28 04:38:06;;;;;;;1999.90;999.90;;;;;;;9.70;57.92;101113.53;5015197;28;98588;-77
2021/08/28 04:40:34;;;;;;;1999.90;999.90;;;;;;;9.69;58.19;101111.69;4992000;28;99198;-77
2021/08/28 04:43:05;;;;;;;1999.90;999.90;;;;;;;9.67;58.13;101119.63;4994867;28;96835;-78
2021/08/28 04:45:55;;;;;;;1999.90;999.90;;;;;;;9.65;58.22;101110.72;4992477;28;96871;-77
2021/08/28 04:48:31;;;;;;;1999.90;999.90;;;;;;;9.65;58.31;101116.03;5006620;28;97360;-77
2021/08/28 04:51:04;;;;;;;1999.90;999.90;;;;;;;9.65;58.05;101116.03;5006424;28;97217;-78
2021/08/28 04:53:33;;;;;;;1999.90;999.90;;;;;;;9.63;58.19;101115.06;5011330;28;97486;-78
2021/08/28 04:56:01;;;;;;;1999.90;999.90;;;;;;;9.61;58.22;101119.44;5029531;28;97575;-78
2021/08/28 04:58:29;;;;;;;1999.90;999.90;;;;;;;9.61;58.35;101116.78;5027420;28;97920;-77
2021/08/28 05:01:16;;;;;;;1999.90;999.90;;;;;;;9.60;58.31;101117.66;5010097;28;98489;-77
2021/08/28 05:04:03;;;;;;;1999.90;999.90;;;;;;;9.60;58.29;101125.63;5032340;28;96712;-77
2021/08/28 05:06:32;;;;;;;1999.90;999.90;;;;;;;9.61;58.37;101119.44;4994352;28;97216;-77
2021/08/28 05:09:10;;;;;;;1999.90;999.90;;;;;;;9.62;58.32;101117.69;5009679;28;100131;-78
2021/08/28 05:11:38;;;;;;;1999.90;999.90;;;;;;;9.62;58.57;101121.25;4997806;28;98464;-77
2021/08/28 05:14:06;;;;;;;1999.90;999.90;;;;;;;9.62;58.50;101126.56;4994757;28;96870;-78
2021/08/28 05:16:35;;;;;;;1999.90;999.90;;;;;;;9.64;58.21;101121.31;4992418;28;96846;-78
2021/08/28 05:19:15;;;;;;;1999.90;999.90;;;;;;;9.66;58.16;101127.56;4991259;28;101916;-78
2021/08/28 05:21:44;;;;;;;1999.90;999.90;;;;;;;9.67;58.24;101126.69;5008516;28;100283;-78
2021/08/28 05:24:29;;;;;;;1999.90;999.90;;;;;;;9.67;58.15;101124.03;5007897;28;96875;-77
2021/08/28 05:26:59;;;;;;;1999.90;999.90;;;;;;;9.67;58.31;101132.91;5027230;28;96672;-78
2021/08/28 05:29:27;;;;;;;1999.90;999.90;;;;;;;9.69;58.32;101133.88;5025446;27;97848;-78
2021/08/28 05:31:54;;;;;;;1999.90;999.90;;;;;;;9.70;58.32;101134.78;5001346;28;99810;-78
2021/08/28 05:34:22;;;;;;;1999.90;999.90;;;;;;;9.69;58.21;101139.19;5006233;28;97268;-77
2021/08/28 05:37:12;;;;;;;1999.90;999.90;;;;;;;9.70;58.42;101140.09;4990910;28;97446;-78
2021/08/28 05:40:06;;;;;;;1999.90;999.90;;;;;;;9.69;58.23;101139.19;5000491;28;99312;-76
2021/08/28 05:42:35;;;;;;;1999.90;999.90;;;;;;;9.69;58.36;101140.94;4990027;28;100909;-77
2021/08/28 05:45:05;;;;;;;1999.90;999.90;;;;;;;9.68;58.35;101145.34;4990475;28;97187;-77
2021/08/28 05:47:33;;;;;;;1999.90;999.90;;;;;;;9.66;58.52;101141.75;4994520;28;96930;-78
2021/08/28 05:50:03;;;;;;;1999.90;999.90;;;;;;;9.65;58.65;101142.59;5013395;28;98394;-79
2021/08/28 05:52:32;;;;;;;1999.90;999.90;;;;;;;9.65;58.67;101147.00;5011093;28;97778;-78
2021/08/28 05:55:00;;;;;;;1999.90;999.90;;;;;;;9.66;58.71;101152.38;5009529;28;96881;-77
2021/08/28 05:57:30;;;;;;;1999.90;999.90;;;;;;;9.68;58.64;101147.13;5007219;28;96885;-76
2021/08/28 05:59:58;;;;;;;1999.90;999.90;;;;;;;9.69;58.65;101146.25;5005838;28;96904;-77
2021/08/28 06:02:26;;;;;;;1999.90;999.90;;;;;;;9.70;58.48;101143.63;4998999;28;97560;-77
2021/08/28 06:04:54;;;;;;;1999.90;999.90;;;;;;;9.72;58.53;101151.63;5001603;28;96843;-78
2021/08/28 06:07:42;;;;;;;1999.90;999.90;;;;;;;9.73;58.56;101143.75;5022809;28;96869;-79
2021/08/28 06:10:29;;;;;;;1999.90;999.90;;;;;;;9.74;58.50;101148.19;5003610;28;100097;-77
2021/08/28 06:13:17;;;;;;;1999.90;999.90;;;;;;;9.74;58.71;101145.53;5005312;28;100835;-78
2021/08/28 06:15:55;;;;;;;1999.90;999.90;;;;;;;9.78;58.52;101139.47;5002593;28;96886;-77
2021/08/28 06:18:23;;;;;;;1999.90;999.90;;;;;;;9.82;58.39;101148.41;5003373;28;97086;-76
2021/08/28 06:20:53;;;;;;;1999.90;999.90;;;;;;;9.82;58.33;101141.34;5022226;27;97949;-77
2021/08/28 06:23:21;;;;;;;1999.90;999.90;;;;;;;9.83;58.55;101145.81;4988632;28;99090;-76
2021/08/28 06:26:09;;;;;;;1999.90;999.90;;;;;;;9.84;58.54;101139.66;5004325;28;96667;-78
2021/08/28 06:28:38;;;;;;;1999.90;999.90;;;;;;;9.86;58.49;101145.88;5020753;28;96932;-78
2021/08/28 06:31:07;;;;;;;1999.90;999.90;;;;;;;9.88;58.40;101145.97;4988596;28;101482;-77
2021/08/28 06:33:36;;;;;;;1999.90;999.90;;;;;;;9.90;58.46;101141.59;4988318;28;100423;-78
2021/08/28 06:36:04;;;;;;;1999.90;999.90;;;;;;;9.91;58.41;101149.59;5004591;28;96790;-78
2021/08/28 06:38:51;;;;;;;1999.90;999.90;;;;;;;9.93;58.45;101155.88;5007057;28;96872;-77
2021/08/28 06:41:45;;;;;;;1999.90;999.90;;;;;;;9.96;58.38;101155.94;5000976;28;99001;-78
2021/08/28 06:44:34;;;;;;;1999.90;999.90;;;;;;;9.97;58.40;101154.19;5009105;28;98931;-78
2021/08/28 06:47:20;;;;;;;1999.90;999.90;;;;;;;10.00;58.21;101152.53;5026651;28;96826;-77
2021/08/28 06:50:08;;;;;;;1999.90;999.90;;;;;;;9.99;58.42;101156.03;5007064;28;96687;-77
2021/08/28 06:52:55;;;;;;;1999.90;999.90;;;;;;;10.00;58.28;101159.59;5003695;28;99305;-78
2021/08/28 06:55:42;;;;;;;1999.90;999.90;;;;;;;10.02;58.23;101158.81;5016914;28;96916;-78
2021/08/28 06:58:48;;;;;;;1999.90;999.90;;;;;;;10.05;58.32;101158.88;5022735;28;96889;-77
2021/08/28 07:01:31;;;;;;;1999.90;999.90;;;;;;;10.04;58.43;101159.75;4986991;28;97189;-78
2021/08/28 07:04:03;;;;;;;1999.90;999.90;;;;;;;9.98;58.35;101150.66;5023363;28;96803;-78
2021/08/28 07:07:03;;;;;;;1999.90;999.90;;;;;;;9.95;58.53;101154.16;5002929;28;97737;-78
2021/08/28 07:09:31;;;;;;;1999.90;999.90;;;;;;;9.98;58.44;101153.31;4987413;28;97161;-78
2021/08/28 07:12:00;;;;;;;1999.90;999.90;;;;;;;9.99;58.47;101160.47;5005251;28;96876;-78
2021/08/28 07:14:30;;;;;;;1999.90;999.90;;;;;;;10.00;58.45;101163.16;4990415;28;101476;-78
2021/08/28 07:16:59;;;;;;;1999.90;999.90;;;;;;;10.02;58.47;101164.13;4991010;28;100304;-78
2021/08/28 07:19:27;;;;;;;1999.90;999.90;;;;;;;10.05;58.35;101166.84;5006394;28;96823;-78
2021/08/28 07:21:55;;;;;;;1999.90;999.90;;;;;;;10.08;58.30;101160.72;5007302;28;96859;-78
2021/08/28 07:24:25;;;;;;;1999.90;999.90;;;;;;;10.07;58.29;101165.13;4991161;28;99503;-78
2021/08/28 07:26:53;;;;;;;1999.90;999.90;;;;;;;10.05;58.55;101165.94;5007038;28;97707;-77
2021/08/28 07:29:59;;;;;;;1999.90;999.90;;;;;;;10.02;58.50;101161.47;5026480;28;96768;-77
2021/08/28 07:32:29;;;;;;;1999.90;999.90;;;;;;;10.03;58.49;101160.59;4992636;28;97008;-77
2021/08/28 07:34:56;;;;;;;1999.90;999.90;;;;;;;10.05;58.53;101161.53;5025309;28;97854;-77
2021/08/28 07:37:24;;;;;;;1999.90;999.90;;;;;;;10.05;58.61;101161.53;4990807;28;99956;-77
2021/08/28 07:39:53;;;;;;;1999.90;999.90;;;;;;;10.01;58.66;101158.75;4992408;28;97063;-78
2021/08/28 07:42:21;;;;;;;1999.90;999.90;;;;;;;10.00;58.73;101157.84;5026633;28;96793;-78
2021/08/28 07:44:49;;;;;;;1999.90;999.90;;;;;;;9.99;58.78;101158.69;4992442;28;99436;-77
2021/08/28 07:47:18;;;;;;;1999.90;999.90;;;;;;;10.02;58.77;101161.47;5007564;28;97978;-78
2021/08/28 07:49:48;;;;;;;1999.90;999.90;;;;;;;10.07;58.66;101154.50;5010302;28;96751;-78
2021/08/28 07:52:18;;;;;;;1999.90;999.90;;;;;;;10.43;58.55;101159.97;4989879;28;96847;-77
2021/08/28 07:54:46;;;;;;;1999.90;999.90;;;;;;;10.31;58.70;101154.31;4992967;28;100744;-78
2021/08/28 07:57:19;;;;;;;1999.90;999.90;;;;;;;10.29;58.79;101156.00;5009164;28;101806;-78
2021/08/28 07:59:48;;;;;;;1999.90;999.90;;;;;;;10.27;58.81;101170.13;4994069;28;96864;-78
2021/08/28 08:02:16;;;;;;;1999.90;999.90;;;;;;;10.20;58.92;101171.72;4992786;28;97302;-77
2021/08/28 08:04:48;;;;;;;1999.90;999.90;;;;;;;10.18;58.96;101176.09;4992670;28;98447;-77
2021/08/28 08:07:36;;;;;;;1999.90;999.90;;;;;;;10.19;58.95;101181.44;4980023;28;99688;-78
2021/08/28 08:10:39;;;;;;;1999.90;999.90;;;;;;;10.25;58.85;101183.38;5026724;28;97035;-77
2021/08/28 08:13:36;;;;;;;1999.90;999.90;;;;;;;10.25;58.77;101177.19;4922625;28;97118;-77
2021/08/28 08:16:33;;;;;;;1999.90;999.90;;;;;;;10.32;58.61;101173.84;5023389;27;99878;-79
2021/08/28 08:19:16;;;;;;;1999.90;999.90;;;;;;;10.33;58.72;101175.63;5006745;28;98863;-77
2021/08/28 08:22:08;;;;;;;1999.90;999.90;;;;;;;10.32;58.69;101171.16;5008704;28;96979;-77
2021/08/28 08:24:49;;;;;;;1999.90;999.90;;;;;;;10.32;58.58;101177.38;4991057;27;97330;-76
2021/08/28 08:27:36;;;;;;;1999.90;999.90;;;;;;;10.35;58.72;101171.25;5006808;28;99276;-77
2021/08/28 08:30:19;;;;;;;1999.90;999.90;;;;;;;10.39;58.67;101167.81;5008132;28;99729;-77
2021/08/28 08:32:52;;;;;;;1999.90;999.90;;;;;;;10.43;58.65;101175.94;4990429;28;96961;-76
2021/08/28 08:35:26;;;;;;;1999.90;999.90;;;;;;;10.47;58.51;101175.19;5007943;28;96879;-76
2021/08/28 08:37:57;;;;;;;1999.90;999.90;;;;;;;10.50;58.38;101172.63;4988544;28;100840;-79
2021/08/28 08:40:27;;;;;;;1999.90;999.90;;;;;;;10.51;58.69;101173.50;5024461;27;98146;-78
2021/08/28 08:42:56;;;;;;;1999.90;999.90;;;;;;;10.52;58.59;101177.97;4993242;28;96788;-76
2021/08/28 08:45:25;;;;;;;1999.90;999.90;;;;;;;10.56;58.18;101175.44;5027972;28;96922;-76
2021/08/28 08:47:54;;;;;;;1999.90;999.90;;;;;;;10.62;58.31;101182.69;5007315;28;98475;-76
2021/08/28 08:50:24;;;;;;;1999.90;999.90;;;;;;;10.67;58.14;101175.72;5004547;28;102247;-78
2021/08/28 08:52:56;;;;;;;1999.90;999.90;;;;;;;10.73;58.00;101171.47;4991192;28;96982;-77
2021/08/28 08:55:30;;;;;;;1999.90;999.90;;;;;;;10.80;57.76;101176.09;5007267;28;97462;-77
2021/08/28 08:58:13;;;;;;;1999.90;999.90;;;;;;;10.88;57.75;101177.22;5007770;28;97712;-76
2021/08/28 09:00:41;;;;;;;1999.90;999.90;;;;;;;10.93;57.64;101175.56;5007479;28;99202;-76
2021/08/28 09:03:50;;;;;;;1999.90;999.90;;;;;;;10.99;57.65;101180.16;5023464;27;96794;-76
2021/08/28 09:06:18;;;;;;;1999.90;999.90;;;;;;;11.03;57.42;101176.72;4990322;28;96953;-77
2021/08/28 09:08:50;;;;;;;1999.90;999.90;;;;;;;11.08;57.30;101181.28;4989641;28;99352;-77
2021/08/28 09:11:23;;;;;;;1999.90;999.90;;;;;;;11.14;57.47;101183.22;5006551;28;100696;-77
2021/08/28 09:13:52;;;;;;;1999.90;999.90;;;;;;;11.14;57.17;101180.53;5022823;27;96791;-78
2021/08/28 09:16:31;;;;;;;1999.90;999.90;;;;;;;11.15;57.27;101177.00;5024451;28;96913;-76
2021/08/28 09:18:59;;;;;;;1999.90;999.90;;;;;;;11.20;57.09;101186.91;4989904;28;97966;-77
2021/08/28 09:21:32;;;;;;;1999.90;999.90;;;;;;;11.26;56.94;101180.84;5006819;28;99624;-78
2021/08/28 09:24:02;;;;;;;1999.90;999.90;;;;;;;11.31;56.79;101179.22;5005436;28;97076;-77
2021/08/28 09:26:33;;;;;;;1999.90;999.90;;;;;;;11.34;56.81;101187.31;5006675;28;97310;-77
2021/08/28 09:29:01;;;;;;;1999.90;999.90;;;;;;;11.35;56.90;101183.75;5004918;28;100375;-77
2021/08/28 09:31:37;;;;;;;1999.90;999.90;;;;;;;11.39;57.05;101182.06;5003686;28;98352;-77
2021/08/28 09:34:17;;;;;;;1999.90;999.90;;;;;;;11.40;56.83;101179.44;5008325;28;96873;-77
2021/08/28 09:36:46;;;;;;;1999.90;999.90;;;;;;;11.44;56.64;101185.72;4986764;28;97037;-78
2021/08/28 09:39:18;;;;;;;1999.90;999.90;;;;;;;11.45;56.59;101183.09;5009767;28;100363;-76
2021/08/28 09:41:46;;;;;;;1999.90;999.90;;;;;;;11.48;56.60;101183.19;5031587;27;97661;-77
2021/08/28 09:44:14;;;;;;;1999.90;999.90;;;;;;;11.52;56.53;101179.75;5049783;28;96369;-78
2021/08/28 09:46:42;;;;;;;1999.90;999.90;;;;;;;11.54;56.42;101178.03;5000597;28;96882;-77
2021/08/28 09:49:10;;;;;;;1999.90;999.90;;;;;;;11.54;56.47;101178.03;4990106;28;99699;-77
2021/08/28 09:51:40;;;;;;;1999.90;999.90;;;;;;;11.57;56.43;101172.75;5024967;28;97557;-77
2021/08/28 09:54:11;;;;;;;1999.90;999.90;;;;;;;11.60;56.33;101172.81;5008766;28;96970;-78
2021/08/28 09:56:42;;;;;;;1999.90;999.90;;;;;;;11.64;56.20;101172.00;4992232;28;97223;-78
2021/08/28 09:59:21;;;;;;;1999.90;999.90;;;;;;;11.66;56.23;101174.72;5025754;28;97536;-78
2021/08/28 10:01:50;;;;;;;1999.90;999.90;;;;;;;11.70;56.00;101174.84;5022202;28;97542;-78
2021/08/28 10:04:18;;;;;;;1999.90;999.90;;;;;;;11.74;56.16;101179.34;5010283;28;97357;-80
2021/08/28 10:06:47;;;;;;;1999.90;999.90;;;;;;;11.77;55.92;101173.19;5025266;27;98004;-78
2021/08/28 10:09:15;;;;;;;1999.90;999.90;;;;;;;11.81;55.88;101178.66;5007983;28;98143;-77
2021/08/28 10:11:47;;;;;;;1999.90;999.90;;;;;;;11.85;55.66;101175.16;5009471;28;99206;-78
2021/08/28 10:14:16;;;;;;;1999.90;999.90;;;;;;;11.89;55.68;101169.03;5009493;28;96701;-78
2021/08/28 10:16:48;;;;;;;1999.90;999.90;;;;;;;11.92;55.71;101166.44;5025826;27;96976;-77
2021/08/28 10:19:17;;;;;;;1999.90;999.90;;;;;;;11.98;55.52;101166.56;4989956;28;99942;-79
2021/08/28 10:21:47;;;;;;;1999.90;999.90;;;;;;;12.04;55.41;101172.03;5007705;28;99347;-77
2021/08/28 10:24:15;;;;;;;1999.90;999.90;;;;;;;12.08;55.29;101162.31;5025651;27;96949;-77
2021/08/28 10:26:45;;;;;;;1999.90;999.90;;;;;;;12.12;55.21;101156.19;5011249;28;96863;-77
2021/08/28 10:29:14;;;;;;;1999.90;999.90;;;;;;;12.15;55.17;101154.47;5008308;28;99297;-77
2021/08/28 10:31:43;;;;;;;1999.90;999.90;;;;;;;12.18;55.20;101159.03;5009013;28;100544;-77
2021/08/28 10:34:11;;;;;;;1999.90;999.90;;;;;;;12.21;54.91;101159.09;5008362;28;97001;-78
2021/08/28 10:36:39;;;;;;;1999.90;999.90;;;;;;;12.24;54.99;101159.13;4992275;28;96807;-78
2021/08/28 10:39:07;;;;;;;1999.90;999.90;;;;;;;12.30;54.92;101156.59;5027084;27;98000;-77
2021/08/28 10:41:36;;;;;;;1999.90;999.90;;;;;;;12.34;54.89;101162.88;5025364;28;98927;-76
2021/08/28 10:44:06;;;;;;;1999.90;999.90;;;;;;;12.40;54.59;101161.22;5011170;28;96799;-76
2021/08/28 10:46:35;;;;;;;1999.90;999.90;;;;;;;12.47;54.65;101146.25;4995486;28;96678;-77
2021/08/28 10:49:22;;;;;;;1999.90;999.90;;;;;;;12.55;54.37;101152.63;4986964;28;99766;-78
2021/08/28 10:51:54;;;;;;;1999.90;999.90;;;;;;;12.57;54.18;101148.22;4993612;28;99535;-76
2021/08/28 10:54:28;;;;;;;1999.90;999.90;;;;;;;12.65;54.10;101141.25;5014021;28;97632;-78
2021/08/28 10:56:58;;;;;;;1999.90;999.90;;;;;;;12.71;54.09;101134.25;4992021;28;96810;-76
2021/08/28 10:59:29;;;;;;;1999.90;999.90;;;;;;;12.79;53.83;101145.06;4992886;28;99871;-77
2021/08/28 11:02:00;;;;;;;1999.90;999.90;;;;;;;12.85;53.84;101142.50;4993348;28;99794;-77
2021/08/28 11:04:40;;;;;;;1999.90;999.90;;;;;;;12.88;53.62;101148.81;4990329;28;96842;-77
2021/08/28 11:07:22;;;;;;;1999.90;999.90;;;;;;;12.90;53.57;101147.06;5008700;28;97028;-77
2021/08/28 11:10:14;;;;;;;1999.90;999.90;;;;;;;12.91;53.39;101145.31;5007190;28;99777;-78
2021/08/28 11:12:46;;;;;;;1999.90;999.90;;;;;;;12.94;53.20;101132.91;5002807;28;99189;-77
2021/08/28 11:15:45;;;;;;;1999.90;999.90;;;;;;;12.97;51.88;101140.03;5006728;28;97604;-77